sensor_id;sensor_type;location;lat;lon;timestamp;P1;durP1;ratioP1;P2;durP2;ratioP2
74656;SDS011;63185;45.642;13.764;2023-12-20T00:01:33;11.75;;;4.60;;
74656;SDS011;63185;45.642;13.764;2023-12-20T00:03:58;11.85;;;5.40;;
74656;SDS011;63185;45.642;13.764;2023-12-20T00:06:24;7.05;;;3.90;;
74656;SDS011;63185;45.642;13.764;2023-12-20T00:08:50;7.63;;;3.72;;
74656;SDS011;63185;45.642;13.764;2023-12-20T00:11:15;5.57;;;3.17;;
74656;SDS011;63185;45.642;13.764;2023-12-20T00:13:41;7.32;;;3.28;;
74656;SDS011;63185;45.642;13.764;2023-12-20T00:16:07;10.63;;;4.43;;
74656;SDS011;63185;45.642;13.764;2023-12-20T00:18:32;7.85;;;3.33;;
74656;SDS011;63185;45.642;13.764;2023-12-20T00:20:58;6.43;;;3.30;;
74656;SDS011;63185;45.642;13.764;2023-12-20T00:23:23;5.40;;;2.72;;
74656;SDS011;63185;45.642;13.764;2023-12-20T00:25:49;8.52;;;3.90;;
74656;SDS011;63185;45.642;13.764;2023-12-20T00:28:15;8.13;;;3.50;;
74656;SDS011;63185;45.642;13.764;2023-12-20T00:30:41;6.93;;;3.25;;
74656;SDS011;63185;45.642;13.764;2023-12-20T00:33:06;8.05;;;3.20;;
74656;SDS011;63185;45.642;13.764;2023-12-20T00:35:35;9.65;;;3.72;;
74656;SDS011;63185;45.642;13.764;2023-12-20T00:38:00;6.50;;;3.38;;
74656;SDS011;63185;45.642;13.764;2023-12-20T00:40:26;6.13;;;3.42;;
74656;SDS011;63185;45.642;13.764;2023-12-20T00:42:52;8.35;;;3.63;;
74656;SDS011;63185;45.642;13.764;2023-12-20T00:45:17;8.88;;;3.90;;
74656;SDS011;63185;45.642;13.764;2023-12-20T00:47:43;6.63;;;3.88;;
74656;SDS011;63185;45.642;13.764;2023-12-20T00:50:09;8.80;;;4.15;;
74656;SDS011;63185;45.642;13.764;2023-12-20T00:52:35;6.80;;;3.60;;
74656;SDS011;63185;45.642;13.764;2023-12-20T00:55:00;6.40;;;3.10;;
74656;SDS011;63185;45.642;13.764;2023-12-20T00:57:26;10.45;;;2.80;;
74656;SDS011;63185;45.642;13.764;2023-12-20T00:59:51;6.13;;;2.53;;
74656;SDS011;63185;45.642;13.764;2023-12-20T01:02:17;5.47;;;2.60;;
74656;SDS011;63185;45.642;13.764;2023-12-20T01:04:43;4.60;;;2.30;;
74656;SDS011;63185;45.642;13.764;2023-12-20T01:07:08;7.68;;;2.70;;
74656;SDS011;63185;45.642;13.764;2023-12-20T01:09:34;6.53;;;3.33;;
74656;SDS011;63185;45.642;13.764;2023-12-20T01:12:00;5.30;;;2.97;;
74656;SDS011;63185;45.642;13.764;2023-12-20T01:14:25;8.02;;;3.25;;
74656;SDS011;63185;45.642;13.764;2023-12-20T01:16:51;11.82;;;3.55;;
74656;SDS011;63185;45.642;13.764;2023-12-20T01:19:16;5.68;;;2.72;;
74656;SDS011;63185;45.642;13.764;2023-12-20T01:21:42;6.47;;;2.95;;
74656;SDS011;63185;45.642;13.764;2023-12-20T01:24:08;6.03;;;3.13;;
74656;SDS011;63185;45.642;13.764;2023-12-20T01:26:34;5.85;;;3.33;;
74656;SDS011;63185;45.642;13.764;2023-12-20T01:28:59;6.47;;;3.00;;
74656;SDS011;63185;45.642;13.764;2023-12-20T01:31:26;7.60;;;3.17;;
74656;SDS011;63185;45.642;13.764;2023-12-20T01:33:52;5.82;;;3.10;;
74656;SDS011;63185;45.642;13.764;2023-12-20T01:36:18;7.45;;;3.40;;
74656;SDS011;63185;45.642;13.764;2023-12-20T01:38:43;6.80;;;3.70;;
74656;SDS011;63185;45.642;13.764;2023-12-20T01:41:09;8.77;;;3.40;;
74656;SDS011;63185;45.642;13.764;2023-12-20T01:43:35;8.00;;;3.58;;
74656;SDS011;63185;45.642;13.764;2023-12-20T01:46:00;6.57;;;3.38;;
74656;SDS011;63185;45.642;13.764;2023-12-20T01:48:26;6.57;;;3.75;;
74656;SDS011;63185;45.642;13.764;2023-12-20T01:50:53;6.32;;;3.83;;
74656;SDS011;63185;45.642;13.764;2023-12-20T01:53:20;9.15;;;4.47;;
74656;SDS011;63185;45.642;13.764;2023-12-20T01:55:47;8.00;;;3.80;;
74656;SDS011;63185;45.642;13.764;2023-12-20T01:58:14;8.45;;;3.60;;
74656;SDS011;63185;45.642;13.764;2023-12-20T02:00:41;7.65;;;4.15;;
74656;SDS011;63185;45.642;13.764;2023-12-20T02:03:07;8.90;;;4.25;;
74656;SDS011;63185;45.642;13.764;2023-12-20T02:05:34;7.95;;;3.70;;
74656;SDS011;63185;45.642;13.764;2023-12-20T02:08:00;8.02;;;3.70;;
74656;SDS011;63185;45.642;13.764;2023-12-20T02:10:26;8.93;;;4.13;;
74656;SDS011;63185;45.642;13.764;2023-12-20T02:12:52;8.30;;;4.20;;
74656;SDS011;63185;45.642;13.764;2023-12-20T02:15:18;8.80;;;4.82;;
74656;SDS011;63185;45.642;13.764;2023-12-20T02:17:44;8.40;;;4.35;;
74656;SDS011;63185;45.642;13.764;2023-12-20T02:20:11;7.80;;;4.43;;
74656;SDS011;63185;45.642;13.764;2023-12-20T02:22:37;8.07;;;4.45;;
74656;SDS011;63185;45.642;13.764;2023-12-20T02:25:02;12.32;;;4.80;;
74656;SDS011;63185;45.642;13.764;2023-12-20T02:27:28;12.38;;;5.47;;
74656;SDS011;63185;45.642;13.764;2023-12-20T02:29:54;12.52;;;7.13;;
74656;SDS011;63185;45.642;13.764;2023-12-20T02:32:21;13.45;;;7.05;;
74656;SDS011;63185;45.642;13.764;2023-12-20T02:34:48;8.98;;;4.60;;
74656;SDS011;63185;45.642;13.764;2023-12-20T02:37:14;11.57;;;5.22;;
74656;SDS011;63185;45.642;13.764;2023-12-20T02:39:40;9.63;;;4.68;;
74656;SDS011;63185;45.642;13.764;2023-12-20T02:42:05;9.68;;;4.70;;
74656;SDS011;63185;45.642;13.764;2023-12-20T02:44:31;7.60;;;4.68;;
74656;SDS011;63185;45.642;13.764;2023-12-20T02:46:56;9.85;;;5.38;;
74656;SDS011;63185;45.642;13.764;2023-12-20T02:49:22;9.27;;;4.40;;
74656;SDS011;63185;45.642;13.764;2023-12-20T02:51:48;7.95;;;3.90;;
74656;SDS011;63185;45.642;13.764;2023-12-20T02:54:13;8.82;;;4.07;;
74656;SDS011;63185;45.642;13.764;2023-12-20T02:56:39;7.43;;;4.13;;
74656;SDS011;63185;45.642;13.764;2023-12-20T02:59:05;7.53;;;3.97;;
74656;SDS011;63185;45.642;13.764;2023-12-20T03:01:31;10.75;;;4.40;;
74656;SDS011;63185;45.642;13.764;2023-12-20T03:03:57;9.90;;;5.10;;
74656;SDS011;63185;45.642;13.764;2023-12-20T03:06:22;9.98;;;4.55;;
74656;SDS011;63185;45.642;13.764;2023-12-20T03:08:48;11.15;;;5.47;;
74656;SDS011;63185;45.642;13.764;2023-12-20T03:11:14;10.65;;;5.53;;
74656;SDS011;63185;45.642;13.764;2023-12-20T03:13:40;11.85;;;5.88;;
74656;SDS011;63185;45.642;13.764;2023-12-20T03:16:12;9.98;;;5.35;;
74656;SDS011;63185;45.642;13.764;2023-12-20T03:18:38;9.70;;;5.57;;
74656;SDS011;63185;45.642;13.764;2023-12-20T03:21:05;9.90;;;5.80;;
74656;SDS011;63185;45.642;13.764;2023-12-20T03:23:31;13.70;;;5.95;;
74656;SDS011;63185;45.642;13.764;2023-12-20T03:25:58;11.73;;;6.07;;
74656;SDS011;63185;45.642;13.764;2023-12-20T03:28:25;11.23;;;5.53;;
74656;SDS011;63185;45.642;13.764;2023-12-20T03:30:51;8.95;;;5.13;;
74656;SDS011;63185;45.642;13.764;2023-12-20T03:33:17;10.05;;;5.05;;
74656;SDS011;63185;45.642;13.764;2023-12-20T03:35:43;10.05;;;4.95;;
74656;SDS011;63185;45.642;13.764;2023-12-20T03:38:08;7.88;;;4.50;;
74656;SDS011;63185;45.642;13.764;2023-12-20T03:40:34;7.65;;;4.32;;
74656;SDS011;63185;45.642;13.764;2023-12-20T03:43:00;10.00;;;4.65;;
74656;SDS011;63185;45.642;13.764;2023-12-20T03:45:26;9.70;;;4.78;;
74656;SDS011;63185;45.642;13.764;2023-12-20T03:47:51;7.22;;;4.22;;
74656;SDS011;63185;45.642;13.764;2023-12-20T03:50:24;7.40;;;4.28;;
74656;SDS011;63185;45.642;13.764;2023-12-20T03:52:50;9.32;;;3.92;;
74656;SDS011;63185;45.642;13.764;2023-12-20T03:55:16;7.35;;;4.18;;
74656;SDS011;63185;45.642;13.764;2023-12-20T03:57:42;9.75;;;4.13;;
74656;SDS011;63185;45.642;13.764;2023-12-20T04:00:08;8.93;;;4.40;;
74656;SDS011;63185;45.642;13.764;2023-12-20T04:02:36;9.25;;;4.32;;
74656;SDS011;63185;45.642;13.764;2023-12-20T04:05:02;7.20;;;4.40;;
74656;SDS011;63185;45.642;13.764;2023-12-20T04:07:28;8.85;;;4.22;;
74656;SDS011;63185;45.642;13.764;2023-12-20T04:09:54;8.60;;;4.47;;
74656;SDS011;63185;45.642;13.764;2023-12-20T04:12:20;7.85;;;4.75;;
74656;SDS011;63185;45.642;13.764;2023-12-20T04:14:46;9.23;;;4.95;;
74656;SDS011;63185;45.642;13.764;2023-12-20T04:17:11;8.15;;;4.57;;
74656;SDS011;63185;45.642;13.764;2023-12-20T04:19:37;13.57;;;5.47;;
74656;SDS011;63185;45.642;13.764;2023-12-20T04:22:03;8.90;;;4.65;;
74656;SDS011;63185;45.642;13.764;2023-12-20T04:24:28;9.95;;;5.47;;
74656;SDS011;63185;45.642;13.764;2023-12-20T04:26:54;9.70;;;5.60;;
74656;SDS011;63185;45.642;13.764;2023-12-20T04:29:19;11.30;;;5.22;;
74656;SDS011;63185;45.642;13.764;2023-12-20T04:31:45;9.25;;;5.22;;
74656;SDS011;63185;45.642;13.764;2023-12-20T04:34:11;8.68;;;5.20;;
74656;SDS011;63185;45.642;13.764;2023-12-20T04:36:36;8.55;;;4.78;;
74656;SDS011;63185;45.642;13.764;2023-12-20T04:39:02;9.07;;;5.22;;
74656;SDS011;63185;45.642;13.764;2023-12-20T04:41:28;9.32;;;4.93;;
74656;SDS011;63185;45.642;13.764;2023-12-20T04:43:53;8.00;;;4.80;;
74656;SDS011;63185;45.642;13.764;2023-12-20T04:46:19;7.53;;;4.72;;
74656;SDS011;63185;45.642;13.764;2023-12-20T04:48:45;11.00;;;4.85;;
74656;SDS011;63185;45.642;13.764;2023-12-20T04:51:10;10.18;;;4.53;;
74656;SDS011;63185;45.642;13.764;2023-12-20T04:53:36;8.23;;;4.70;;
74656;SDS011;63185;45.642;13.764;2023-12-20T04:56:01;8.38;;;4.40;;
74656;SDS011;63185;45.642;13.764;2023-12-20T04:58:27;8.05;;;4.25;;
74656;SDS011;63185;45.642;13.764;2023-12-20T05:00:53;6.70;;;4.13;;
74656;SDS011;63185;45.642;13.764;2023-12-20T05:03:19;6.97;;;3.72;;
74656;SDS011;63185;45.642;13.764;2023-12-20T05:05:44;6.85;;;4.10;;
74656;SDS011;63185;45.642;13.764;2023-12-20T05:08:10;7.43;;;4.68;;
74656;SDS011;63185;45.642;13.764;2023-12-20T05:10:36;8.32;;;4.60;;
74656;SDS011;63185;45.642;13.764;2023-12-20T05:13:01;7.38;;;4.82;;
74656;SDS011;63185;45.642;13.764;2023-12-20T05:15:27;9.00;;;4.82;;
74656;SDS011;63185;45.642;13.764;2023-12-20T05:17:53;9.40;;;5.35;;
74656;SDS011;63185;45.642;13.764;2023-12-20T05:20:18;8.80;;;5.38;;
74656;SDS011;63185;45.642;13.764;2023-12-20T05:22:44;9.30;;;5.38;;
74656;SDS011;63185;45.642;13.764;2023-12-20T05:25:10;8.50;;;5.07;;
74656;SDS011;63185;45.642;13.764;2023-12-20T05:27:36;12.23;;;5.47;;
74656;SDS011;63185;45.642;13.764;2023-12-20T05:30:01;7.60;;;4.82;;
74656;SDS011;63185;45.642;13.764;2023-12-20T05:32:29;9.25;;;5.15;;
74656;SDS011;63185;45.642;13.764;2023-12-20T05:34:56;8.45;;;4.75;;
74656;SDS011;63185;45.642;13.764;2023-12-20T05:37:21;8.30;;;4.32;;
74656;SDS011;63185;45.642;13.764;2023-12-20T05:39:47;7.38;;;3.80;;
74656;SDS011;63185;45.642;13.764;2023-12-20T05:42:13;6.57;;;3.88;;
74656;SDS011;63185;45.642;13.764;2023-12-20T05:44:38;7.47;;;3.58;;
74656;SDS011;63185;45.642;13.764;2023-12-20T05:47:04;5.95;;;3.10;;
74656;SDS011;63185;45.642;13.764;2023-12-20T05:49:30;5.60;;;2.90;;
74656;SDS011;63185;45.642;13.764;2023-12-20T05:51:56;7.50;;;3.28;;
74656;SDS011;63185;45.642;13.764;2023-12-20T05:54:22;7.40;;;3.50;;
74656;SDS011;63185;45.642;13.764;2023-12-20T05:56:48;7.78;;;3.70;;
74656;SDS011;63185;45.642;13.764;2023-12-20T05:59:14;10.25;;;4.35;;
74656;SDS011;63185;45.642;13.764;2023-12-20T06:01:39;9.35;;;4.00;;
74656;SDS011;63185;45.642;13.764;2023-12-20T06:04:05;7.03;;;3.70;;
74656;SDS011;63185;45.642;13.764;2023-12-20T06:06:31;4.82;;;2.90;;
74656;SDS011;63185;45.642;13.764;2023-12-20T06:08:56;5.20;;;2.83;;
74656;SDS011;63185;45.642;13.764;2023-12-20T06:11:22;7.57;;;3.88;;
74656;SDS011;63185;45.642;13.764;2023-12-20T06:13:48;8.68;;;3.38;;
74656;SDS011;63185;45.642;13.764;2023-12-20T06:16:17;8.93;;;4.07;;
74656;SDS011;63185;45.642;13.764;2023-12-20T06:18:43;7.38;;;3.72;;
74656;SDS011;63185;45.642;13.764;2023-12-20T06:21:09;6.97;;;3.30;;
74656;SDS011;63185;45.642;13.764;2023-12-20T06:23:37;7.07;;;3.70;;
74656;SDS011;63185;45.642;13.764;2023-12-20T06:26:03;8.82;;;4.55;;
74656;SDS011;63185;45.642;13.764;2023-12-20T06:28:29;11.82;;;5.63;;
74656;SDS011;63185;45.642;13.764;2023-12-20T06:30:55;10.93;;;6.03;;
74656;SDS011;63185;45.642;13.764;2023-12-20T06:33:22;10.10;;;6.10;;
74656;SDS011;63185;45.642;13.764;2023-12-20T06:35:48;12.23;;;7.05;;
74656;SDS011;63185;45.642;13.764;2023-12-20T06:38:14;16.27;;;8.25;;
74656;SDS011;63185;45.642;13.764;2023-12-20T06:40:39;13.70;;;8.63;;
74656;SDS011;63185;45.642;13.764;2023-12-20T06:43:05;14.25;;;7.57;;
74656;SDS011;63185;45.642;13.764;2023-12-20T06:48:14;17.20;;;9.15;;
74656;SDS011;63185;45.642;13.764;2023-12-20T06:50:40;15.55;;;9.10;;
74656;SDS011;63185;45.642;13.764;2023-12-20T06:53:06;15.45;;;8.93;;
74656;SDS011;63185;45.642;13.764;2023-12-20T06:55:35;12.07;;;6.90;;
74656;SDS011;63185;45.642;13.764;2023-12-20T06:58:02;15.25;;;9.70;;
74656;SDS011;63185;45.642;13.764;2023-12-20T07:00:28;14.80;;;8.73;;
74656;SDS011;63185;45.642;13.764;2023-12-20T07:02:54;16.67;;;9.88;;
74656;SDS011;63185;45.642;13.764;2023-12-20T07:05:20;15.23;;;8.93;;
74656;SDS011;63185;45.642;13.764;2023-12-20T07:07:46;14.93;;;9.30;;
74656;SDS011;63185;45.642;13.764;2023-12-20T07:10:12;13.98;;;8.52;;
74656;SDS011;63185;45.642;13.764;2023-12-20T07:12:38;13.30;;;7.85;;
74656;SDS011;63185;45.642;13.764;2023-12-20T07:15:04;12.10;;;7.65;;
74656;SDS011;63185;45.642;13.764;2023-12-20T07:17:31;10.70;;;7.25;;
74656;SDS011;63185;45.642;13.764;2023-12-20T07:19:58;12.00;;;7.68;;
74656;SDS011;63185;45.642;13.764;2023-12-20T07:22:24;11.90;;;7.10;;
74656;SDS011;63185;45.642;13.764;2023-12-20T07:24:49;13.75;;;7.93;;
74656;SDS011;63185;45.642;13.764;2023-12-20T07:27:17;14.43;;;9.45;;
74656;SDS011;63185;45.642;13.764;2023-12-20T07:29:43;17.45;;;9.32;;
74656;SDS011;63185;45.642;13.764;2023-12-20T07:32:08;17.05;;;9.05;;
74656;SDS011;63185;45.642;13.764;2023-12-20T07:34:34;15.40;;;8.68;;
74656;SDS011;63185;45.642;13.764;2023-12-20T07:37:00;17.05;;;8.95;;
74656;SDS011;63185;45.642;13.764;2023-12-20T07:39:25;12.52;;;8.05;;
74656;SDS011;63185;45.642;13.764;2023-12-20T07:41:51;17.58;;;8.23;;
74656;SDS011;63185;45.642;13.764;2023-12-20T07:44:18;12.13;;;7.60;;
74656;SDS011;63185;45.642;13.764;2023-12-20T07:46:43;12.25;;;6.68;;
74656;SDS011;63185;45.642;13.764;2023-12-20T07:49:09;16.65;;;7.50;;
74656;SDS011;63185;45.642;13.764;2023-12-20T07:51:36;12.48;;;6.15;;
74656;SDS011;63185;45.642;13.764;2023-12-20T07:54:01;10.65;;;5.53;;
74656;SDS011;63185;45.642;13.764;2023-12-20T07:56:28;8.05;;;5.22;;
74656;SDS011;63185;45.642;13.764;2023-12-20T07:58:54;10.10;;;5.72;;
74656;SDS011;63185;45.642;13.764;2023-12-20T08:01:20;8.13;;;4.95;;
74656;SDS011;63185;45.642;13.764;2023-12-20T08:03:46;9.48;;;5.50;;
74656;SDS011;63185;45.642;13.764;2023-12-20T08:06:11;8.68;;;5.47;;
74656;SDS011;63185;45.642;13.764;2023-12-20T08:08:37;11.18;;;5.90;;
74656;SDS011;63185;45.642;13.764;2023-12-20T08:11:03;10.50;;;5.68;;
74656;SDS011;63185;45.642;13.764;2023-12-20T08:13:28;10.77;;;5.18;;
74656;SDS011;63185;45.642;13.764;2023-12-20T08:15:54;11.02;;;5.97;;
74656;SDS011;63185;45.642;13.764;2023-12-20T08:18:21;10.30;;;5.43;;
74656;SDS011;63185;45.642;13.764;2023-12-20T08:20:47;11.23;;;4.75;;
74656;SDS011;63185;45.642;13.764;2023-12-20T08:23:13;7.75;;;4.40;;
74656;SDS011;63185;45.642;13.764;2023-12-20T08:25:40;9.27;;;4.82;;
74656;SDS011;63185;45.642;13.764;2023-12-20T08:28:06;8.23;;;4.85;;
74656;SDS011;63185;45.642;13.764;2023-12-20T08:30:31;8.75;;;5.25;;
74656;SDS011;63185;45.642;13.764;2023-12-20T08:32:59;15.88;;;10.25;;
74656;SDS011;63185;45.642;13.764;2023-12-20T08:35:25;17.17;;;7.07;;
74656;SDS011;63185;45.642;13.764;2023-12-20T08:37:51;10.10;;;5.93;;
74656;SDS011;63185;45.642;13.764;2023-12-20T08:40:16;10.68;;;6.43;;
74656;SDS011;63185;45.642;13.764;2023-12-20T08:42:42;12.73;;;7.03;;
74656;SDS011;63185;45.642;13.764;2023-12-20T08:45:08;13.52;;;7.22;;
74656;SDS011;63185;45.642;13.764;2023-12-20T08:47:33;9.98;;;7.00;;
74656;SDS011;63185;45.642;13.764;2023-12-20T08:49:59;11.52;;;7.07;;
74656;SDS011;63185;45.642;13.764;2023-12-20T08:52:26;12.43;;;7.40;;
74656;SDS011;63185;45.642;13.764;2023-12-20T08:54:52;12.07;;;7.57;;
74656;SDS011;63185;45.642;13.764;2023-12-20T08:57:22;12.38;;;7.75;;
74656;SDS011;63185;45.642;13.764;2023-12-20T08:59:50;14.30;;;8.20;;
74656;SDS011;63185;45.642;13.764;2023-12-20T09:02:16;15.43;;;9.00;;
74656;SDS011;63185;45.642;13.764;2023-12-20T09:04:42;15.25;;;8.88;;
74656;SDS011;63185;45.642;13.764;2023-12-20T09:07:20;16.40;;;10.10;;
74656;SDS011;63185;45.642;13.764;2023-12-20T09:09:50;14.65;;;9.88;;
74656;SDS011;63185;45.642;13.764;2023-12-20T09:12:17;15.57;;;10.00;;
74656;SDS011;63185;45.642;13.764;2023-12-20T09:14:44;14.93;;;9.23;;
74656;SDS011;63185;45.642;13.764;2023-12-20T09:17:10;15.20;;;9.52;;
74656;SDS011;63185;45.642;13.764;2023-12-20T09:19:37;23.55;;;13.40;;
74656;SDS011;63185;45.642;13.764;2023-12-20T09:22:03;23.25;;;15.43;;
74656;SDS011;63185;45.642;13.764;2023-12-20T09:24:30;24.17;;;14.93;;
74656;SDS011;63185;45.642;13.764;2023-12-20T09:26:56;23.85;;;14.45;;
74656;SDS011;63185;45.642;13.764;2023-12-20T09:29:22;21.15;;;14.65;;
74656;SDS011;63185;45.642;13.764;2023-12-20T09:31:49;28.27;;;14.63;;
74656;SDS011;63185;45.642;13.764;2023-12-20T09:34:15;25.77;;;15.27;;
74656;SDS011;63185;45.642;13.764;2023-12-20T09:36:42;26.30;;;15.52;;
74656;SDS011;63185;45.642;13.764;2023-12-20T09:39:12;21.73;;;13.95;;
74656;SDS011;63185;45.642;13.764;2023-12-20T09:41:40;23.92;;;14.55;;
74656;SDS011;63185;45.642;13.764;2023-12-20T09:44:08;23.58;;;12.95;;
74656;SDS011;63185;45.642;13.764;2023-12-20T09:46:42;24.92;;;14.00;;
74656;SDS011;63185;45.642;13.764;2023-12-20T09:49:09;21.17;;;13.25;;
74656;SDS011;63185;45.642;13.764;2023-12-20T09:51:36;23.48;;;14.80;;
74656;SDS011;63185;45.642;13.764;2023-12-20T09:54:03;21.17;;;13.00;;
74656;SDS011;63185;45.642;13.764;2023-12-20T09:56:29;20.88;;;13.48;;
74656;SDS011;63185;45.642;13.764;2023-12-20T09:58:55;21.83;;;12.80;;
74656;SDS011;63185;45.642;13.764;2023-12-20T10:01:21;18.88;;;11.45;;
74656;SDS011;63185;45.642;13.764;2023-12-20T10:03:48;17.42;;;10.40;;
74656;SDS011;63185;45.642;13.764;2023-12-20T10:06:19;18.45;;;10.65;;
74656;SDS011;63185;45.642;13.764;2023-12-20T10:08:45;12.52;;;8.15;;
74656;SDS011;63185;45.642;13.764;2023-12-20T10:11:11;13.18;;;7.88;;
74656;SDS011;63185;45.642;13.764;2023-12-20T10:13:39;12.98;;;7.43;;
74656;SDS011;63185;45.642;13.764;2023-12-20T10:16:08;17.13;;;7.47;;
74656;SDS011;63185;45.642;13.764;2023-12-20T10:18:34;14.57;;;7.47;;
74656;SDS011;63185;45.642;13.764;2023-12-20T10:21:02;15.15;;;7.75;;
74656;SDS011;63185;45.642;13.764;2023-12-20T10:23:29;15.43;;;8.57;;
74656;SDS011;63185;45.642;13.764;2023-12-20T10:25:56;18.33;;;9.25;;
74656;SDS011;63185;45.642;13.764;2023-12-20T10:30:54;22.57;;;8.57;;
74656;SDS011;63185;45.642;13.764;2023-12-20T10:33:23;13.83;;;7.73;;
74656;SDS011;63185;45.642;13.764;2023-12-20T10:35:57;14.23;;;6.55;;
74656;SDS011;63185;45.642;13.764;2023-12-20T10:38:23;15.23;;;7.03;;
74656;SDS011;63185;45.642;13.764;2023-12-20T10:40:49;13.43;;;7.18;;
74656;SDS011;63185;45.642;13.764;2023-12-20T10:43:19;15.50;;;7.10;;
74656;SDS011;63185;45.642;13.764;2023-12-20T10:45:45;15.25;;;7.60;;
74656;SDS011;63185;45.642;13.764;2023-12-20T10:48:11;15.32;;;7.30;;
74656;SDS011;63185;45.642;13.764;2023-12-20T10:50:37;11.52;;;6.53;;
74656;SDS011;63185;45.642;13.764;2023-12-20T10:53:03;15.43;;;6.72;;
74656;SDS011;63185;45.642;13.764;2023-12-20T10:55:29;15.02;;;7.65;;
74656;SDS011;63185;45.642;13.764;2023-12-20T10:58:06;14.30;;;7.72;;
74656;SDS011;63185;45.642;13.764;2023-12-20T11:00:35;13.75;;;7.20;;
74656;SDS011;63185;45.642;13.764;2023-12-20T11:03:09;11.20;;;6.53;;
74656;SDS011;63185;45.642;13.764;2023-12-20T11:05:58;13.93;;;6.13;;
74656;SDS011;63185;45.642;13.764;2023-12-20T11:08:32;11.27;;;6.32;;
74656;SDS011;63185;45.642;13.764;2023-12-20T11:11:06;11.57;;;5.70;;
74656;SDS011;63185;45.642;13.764;2023-12-20T11:13:40;11.38;;;5.22;;
74656;SDS011;63185;45.642;13.764;2023-12-20T11:16:26;14.43;;;6.38;;
74656;SDS011;63185;45.642;13.764;2023-12-20T11:18:52;13.45;;;5.70;;
74656;SDS011;63185;45.642;13.764;2023-12-20T11:21:18;11.77;;;5.70;;
74656;SDS011;63185;45.642;13.764;2023-12-20T11:23:45;15.25;;;7.05;;
74656;SDS011;63185;45.642;13.764;2023-12-20T11:26:10;14.35;;;7.25;;
74656;SDS011;63185;45.642;13.764;2023-12-20T11:28:36;13.68;;;6.93;;
74656;SDS011;63185;45.642;13.764;2023-12-20T11:31:02;16.45;;;7.35;;
74656;SDS011;63185;45.642;13.764;2023-12-20T11:33:32;13.68;;;8.00;;
74656;SDS011;63185;45.642;13.764;2023-12-20T11:36:01;13.80;;;8.32;;
74656;SDS011;63185;45.642;13.764;2023-12-20T11:38:28;15.90;;;9.05;;
74656;SDS011;63185;45.642;13.764;2023-12-20T11:41:07;15.15;;;8.43;;
74656;SDS011;63185;45.642;13.764;2023-12-20T11:43:35;20.17;;;8.25;;
74656;SDS011;63185;45.642;13.764;2023-12-20T11:46:06;13.43;;;8.45;;
74656;SDS011;63185;45.642;13.764;2023-12-20T11:48:34;13.18;;;8.27;;
74656;SDS011;63185;45.642;13.764;2023-12-20T11:51:00;16.33;;;8.70;;
74656;SDS011;63185;45.642;13.764;2023-12-20T11:53:29;16.20;;;8.75;;
74656;SDS011;63185;45.642;13.764;2023-12-20T11:55:56;16.40;;;8.82;;
74656;SDS011;63185;45.642;13.764;2023-12-20T11:58:22;15.75;;;7.70;;
74656;SDS011;63185;45.642;13.764;2023-12-20T12:00:49;12.05;;;7.43;;
74656;SDS011;63185;45.642;13.764;2023-12-20T12:03:15;13.43;;;8.80;;
74656;SDS011;63185;45.642;13.764;2023-12-20T12:05:41;20.90;;;9.05;;
74656;SDS011;63185;45.642;13.764;2023-12-20T12:08:06;17.40;;;8.55;;
74656;SDS011;63185;45.642;13.764;2023-12-20T12:10:33;17.95;;;9.10;;
74656;SDS011;63185;45.642;13.764;2023-12-20T12:12:59;15.55;;;8.70;;
74656;SDS011;63185;45.642;13.764;2023-12-20T12:15:25;15.13;;;8.43;;
74656;SDS011;63185;45.642;13.764;2023-12-20T12:17:55;16.95;;;9.40;;
74656;SDS011;63185;45.642;13.764;2023-12-20T12:20:21;20.45;;;9.20;;
74656;SDS011;63185;45.642;13.764;2023-12-20T12:22:57;19.52;;;9.77;;
74656;SDS011;63185;45.642;13.764;2023-12-20T12:25:23;17.60;;;8.05;;
74656;SDS011;63185;45.642;13.764;2023-12-20T12:27:50;15.57;;;7.85;;
74656;SDS011;63185;45.642;13.764;2023-12-20T12:30:16;10.98;;;7.03;;
74656;SDS011;63185;45.642;13.764;2023-12-20T12:32:43;10.15;;;6.22;;
74656;SDS011;63185;45.642;13.764;2023-12-20T12:35:09;12.68;;;7.03;;
74656;SDS011;63185;45.642;13.764;2023-12-20T12:40:06;19.17;;;7.20;;
74656;SDS011;63185;45.642;13.764;2023-12-20T12:45:01;13.15;;;6.53;;
74656;SDS011;63185;45.642;13.764;2023-12-20T12:47:26;12.43;;;6.28;;
74656;SDS011;63185;45.642;13.764;2023-12-20T12:49:52;10.15;;;7.03;;
74656;SDS011;63185;45.642;13.764;2023-12-20T12:52:18;16.15;;;8.70;;
74656;SDS011;63185;45.642;13.764;2023-12-20T12:54:44;14.20;;;8.57;;
74656;SDS011;63185;45.642;13.764;2023-12-20T12:57:11;13.32;;;9.13;;
74656;SDS011;63185;45.642;13.764;2023-12-20T12:59:37;17.25;;;10.52;;
74656;SDS011;63185;45.642;13.764;2023-12-20T13:02:02;20.08;;;10.77;;
74656;SDS011;63185;45.642;13.764;2023-12-20T13:04:28;20.45;;;10.20;;
74656;SDS011;63185;45.642;13.764;2023-12-20T13:06:54;17.52;;;9.52;;
74656;SDS011;63185;45.642;13.764;2023-12-20T13:09:20;23.30;;;10.50;;
74656;SDS011;63185;45.642;13.764;2023-12-20T13:11:46;23.33;;;11.50;;
74656;SDS011;63185;45.642;13.764;2023-12-20T13:14:11;20.85;;;10.68;;
74656;SDS011;63185;45.642;13.764;2023-12-20T13:16:40;21.77;;;11.60;;
74656;SDS011;63185;45.642;13.764;2023-12-20T13:19:06;18.42;;;11.48;;
74656;SDS011;63185;45.642;13.764;2023-12-20T13:21:32;17.65;;;9.85;;
74656;SDS011;63185;45.642;13.764;2023-12-20T13:23:58;17.13;;;10.07;;
74656;SDS011;63185;45.642;13.764;2023-12-20T13:26:24;14.43;;;9.45;;
74656;SDS011;63185;45.642;13.764;2023-12-20T13:28:50;19.20;;;9.70;;
74656;SDS011;63185;45.642;13.764;2023-12-20T13:31:15;14.07;;;8.90;;
74656;SDS011;63185;45.642;13.764;2023-12-20T13:33:41;14.88;;;8.93;;
74656;SDS011;63185;45.642;13.764;2023-12-20T13:36:07;17.60;;;9.32;;
74656;SDS011;63185;45.642;13.764;2023-12-20T13:38:32;16.13;;;9.18;;
74656;SDS011;63185;45.642;13.764;2023-12-20T13:40:58;16.33;;;9.45;;
74656;SDS011;63185;45.642;13.764;2023-12-20T13:43:24;25.15;;;9.40;;
74656;SDS011;63185;45.642;13.764;2023-12-20T13:45:50;15.45;;;9.57;;
74656;SDS011;63185;45.642;13.764;2023-12-20T13:48:16;16.20;;;9.02;;
74656;SDS011;63185;45.642;13.764;2023-12-20T13:50:42;18.10;;;10.75;;
74656;SDS011;63185;45.642;13.764;2023-12-20T13:53:07;16.83;;;10.15;;
74656;SDS011;63185;45.642;13.764;2023-12-20T13:55:33;17.23;;;10.68;;
74656;SDS011;63185;45.642;13.764;2023-12-20T13:57:58;19.98;;;10.75;;
74656;SDS011;63185;45.642;13.764;2023-12-20T14:00:27;16.83;;;9.95;;
74656;SDS011;63185;45.642;13.764;2023-12-20T14:02:53;16.73;;;10.32;;
74656;SDS011;63185;45.642;13.764;2023-12-20T14:05:18;20.13;;;10.73;;
74656;SDS011;63185;45.642;13.764;2023-12-20T14:07:44;19.63;;;11.35;;
74656;SDS011;63185;45.642;13.764;2023-12-20T14:10:13;19.92;;;12.20;;
74656;SDS011;63185;45.642;13.764;2023-12-20T14:12:39;17.92;;;11.23;;
74656;SDS011;63185;45.642;13.764;2023-12-20T14:15:05;18.35;;;11.60;;
74656;SDS011;63185;45.642;13.764;2023-12-20T14:17:39;19.75;;;10.90;;
74656;SDS011;63185;45.642;13.764;2023-12-20T14:20:05;17.85;;;9.90;;
74656;SDS011;63185;45.642;13.764;2023-12-20T14:22:32;17.48;;;10.60;;
74656;SDS011;63185;45.642;13.764;2023-12-20T14:24:57;17.33;;;9.68;;
74656;SDS011;63185;45.642;13.764;2023-12-20T14:27:23;16.92;;;9.75;;
74656;SDS011;63185;45.642;13.764;2023-12-20T14:29:52;15.40;;;8.50;;
74656;SDS011;63185;45.642;13.764;2023-12-20T14:32:18;12.77;;;8.57;;